createdAt,value
2022-09-01T00:00:02.987Z,15.7
2022-09-01T00:20:03.022Z,15.6
2022-09-01T00:40:02.349Z,15.7
2022-09-01T01:00:02.675Z,15.6
2022-09-01T01:20:02.438Z,15.6
2022-09-01T01:40:02.875Z,15.6
2022-09-01T02:00:02.337Z,15.6
2022-09-01T02:20:03.065Z,15.4
2022-09-01T02:40:02.576Z,15.2
2022-09-01T03:00:02.928Z,14.9
2022-09-01T03:20:02.353Z,14.7
2022-09-01T03:40:02.706Z,14.4
2022-09-01T04:00:03.187Z,14.1
2022-09-01T04:20:03.313Z,13.7
2022-09-01T04:40:04.255Z,13.5
2022-09-01T05:00:02.993Z,13.4
2022-09-01T05:20:03.644Z,13.5
2022-09-01T05:40:02.396Z,13.7
2022-09-01T06:00:03.231Z,14.1
2022-09-01T06:20:03.293Z,14.7
2022-09-01T06:40:03.143Z,15.5
2022-09-01T07:00:03.957Z,16.5
2022-09-01T08:00:02.905Z,21
2022-09-01T08:20:03.171Z,22.8
2022-09-01T08:40:04.005Z,24
2022-09-01T09:00:02.550Z,25.1
2022-09-01T09:20:02.981Z,26
2022-09-01T09:40:02.326Z,25.6
2022-09-01T10:00:02.816Z,25.7
2022-09-01T10:20:03.941Z,25.5
2022-09-01T10:40:02.645Z,25.4
2022-09-01T11:00:02.901Z,24.8
2022-09-01T11:20:02.603Z,24.4
2022-09-01T11:40:03.095Z,24.5
2022-09-01T12:00:02.710Z,24.3
2022-09-01T12:20:02.136Z,23.4
2022-09-01T12:40:02.552Z,23.1
2022-09-01T13:00:03.123Z,23
2022-09-01T13:20:02.724Z,22.8
2022-09-01T13:40:03.225Z,22.4
2022-09-01T14:00:02.643Z,22.4
2022-09-01T14:20:02.516Z,22.8
2022-09-01T14:40:02.886Z,22.4
2022-09-01T15:00:03.242Z,22.5
2022-09-01T15:20:02.768Z,22
2022-09-01T15:40:03.516Z,21.3
2022-09-01T16:00:04.286Z,21.1
2022-09-01T16:20:03.758Z,20.7
2022-09-01T16:40:05.749Z,20.7
2022-09-01T17:00:04.209Z,20.3
2022-09-01T17:20:09.010Z,20.2
2022-09-01T17:40:03.330Z,19.8
2022-09-01T18:00:03.836Z,19.1
2022-09-01T18:20:02.675Z,18.2
2022-09-01T18:40:03.210Z,17.7
2022-09-01T19:00:03.092Z,17.1
2022-09-01T19:20:03.124Z,16.7
2022-09-01T19:40:02.584Z,16.2
2022-09-01T20:00:09.956Z,15.9
2022-09-01T20:20:07.695Z,15.4
2022-09-01T20:40:03.422Z,15
2022-09-01T21:20:02.835Z,14.4
2022-09-01T21:40:02.095Z,14.1
2022-09-01T22:00:02.329Z,13.8
2022-09-01T22:20:03.242Z,13.8
2022-09-01T22:40:02.555Z,13.6
2022-09-01T23:00:02.793Z,13.5
2022-09-01T23:20:02.427Z,13.4
2022-09-01T23:40:02.570Z,13.1
